Friday, May 25, 2018, 8:55 AM EDT
Back to Local

KRME, Griffiss Airfield

Location: Rome, NY, United States Lat: 43.233
Local Time: 8:55 AM EDT (12:55 GMT) Lon: -75.4
Time Zone: US/Eastern Elev: 505 ft

Show me the last for .
Show Coded

Time T Td Feel RH Dir Speed Gust Alt SLP Vis Weather Sky Remarks
2018-05-25 07:53 57 53 - 86 - Calm - 30.01 30.00 10 CLR 6-hr Min Temp (8am): 46.9°F
6-hr Max Temp (8am): 57.0°F
2018-05-25 06:53 51 49 - 92 110° 3 - 30.03 30.01 10 CLR None
2018-05-25 05:53 49 48 - 96 - Calm - 30.03 30.01 10 CLR None
2018-05-25 04:53 49 48 - 96 - Calm - 30.03 30.02 10 CLR None
2018-05-25 03:53 50 49 - 96 - Calm - 30.04 30.03 10 CLR None
2018-05-25 02:53 52 50 - 92 - Calm - 30.04 30.03 10 CLR None
2018-05-25 01:53 52 50 - 92 - Calm - 30.04 30.03 10 CLR 6-hr Min Temp (2am): 51.1°F
6-hr Max Temp (2am): 73.0°F
2018-05-25 00:53 53 51 - 92 - Calm - 30.05 30.04 10 CLR 24-hr Min Temp (1am): 42.1°F
24-hr Max Temp (1am): 77.0°F
2018-05-24 23:53 56 51 - 83 - Calm - 30.07 30.06 10 CLR None
2018-05-24 22:53 57 52 - 83 - Calm - 30.07 30.06 10 CLR None
2018-05-24 21:53 60 52 - 74 - Calm - 30.07 30.07 10 CLR None
2018-05-24 20:53 64 52 - 64 60° 3 - 30.06 30.06 10 CLR None
2018-05-24 19:53 73 49 76 42 - Calm - 30.07 30.06 10 CLR 6-hr Min Temp (8pm): 72.0°F
6-hr Max Temp (8pm): 77.0°F
2018-05-24 18:53 76 47 - 35 260° 10 - 30.07 30.07 10 CLR None
2018-05-24 17:53 77 48 - 36 270° 12 - 30.08 30.07 10 CLR None
2018-05-24 16:53 77 47 - 34 270° 12 - 30.09 30.08 10 CLR None
2018-05-24 15:53 76 47 - 35 260° 9 - 30.11 30.10 10 CLR None
2018-05-24 14:53 75 47 - 36 240° 9 - 30.13 30.12 10 CLR None
2018-05-24 13:53 73 44 - 35 250° 8 - 30.14 30.14 10 CLR 6-hr Min Temp (2pm): 51.1°F
6-hr Max Temp (2pm): 73.9°F
2018-05-24 12:53 72 45 - 38 230° 9 - 30.16 30.15 10 CLR None
2018-05-24 11:53 69 40 - 34 280° 8 - 30.18 30.17 10 CLR None
2018-05-24 10:53 66 43 - 43 Variable 6 - 30.19 30.19 10 CLR None
2018-05-24 09:53 61 43 - 51 310° 5 - 30.20 30.19 10 CLR None

Support USWX by starting your Amazon purchase here.